sensor_id;sensor_type;location;lat;lon;timestamp;pressure;altitude;pressure_sealevel;temperature;humidity
28079;BME280;15388;42.238;24.684;2022-12-16T00:01:33;99536.78;;;4.93;100.00
28079;BME280;15388;42.238;24.684;2022-12-16T00:03:58;99528.13;;;4.91;100.00
28079;BME280;15388;42.238;24.684;2022-12-16T00:06:25;99532.47;;;4.92;100.00
28079;BME280;15388;42.238;24.684;2022-12-16T00:08:51;99525.50;;;4.91;100.00
28079;BME280;15388;42.238;24.684;2022-12-16T00:11:16;99529.63;;;4.95;100.00
28079;BME280;15388;42.238;24.684;2022-12-16T00:13:41;99518.22;;;4.94;100.00
28079;BME280;15388;42.238;24.684;2022-12-16T00:16:11;99514.44;;;4.99;100.00
28079;BME280;15388;42.238;24.684;2022-12-16T00:18:36;99526.69;;;5.00;100.00
28079;BME280;15388;42.238;24.684;2022-12-16T00:21:02;99532.06;;;4.98;100.00
28079;BME280;15388;42.238;24.684;2022-12-16T00:23:27;99530.16;;;5.00;100.00
28079;BME280;15388;42.238;24.684;2022-12-16T00:25:52;99538.28;;;4.97;100.00
28079;BME280;15388;42.238;24.684;2022-12-16T00:28:18;99531.72;;;4.90;100.00
28079;BME280;15388;42.238;24.684;2022-12-16T00:30:47;99530.03;;;4.89;100.00
28079;BME280;15388;42.238;24.684;2022-12-16T00:33:12;99531.63;;;4.91;100.00
28079;BME280;15388;42.238;24.684;2022-12-16T00:35:38;99536.88;;;4.64;100.00
28079;BME280;15388;42.238;24.684;2022-12-16T00:38:03;99541.63;;;4.44;100.00
28079;BME280;15388;42.238;24.684;2022-12-16T00:40:28;99545.88;;;4.46;100.00
28079;BME280;15388;42.238;24.684;2022-12-16T00:42:53;99546.63;;;4.34;100.00
28079;BME280;15388;42.238;24.684;2022-12-16T00:45:19;99543.66;;;4.11;100.00
28079;BME280;15388;42.238;24.684;2022-12-16T00:47:45;99556.25;;;4.06;100.00
28079;BME280;15388;42.238;24.684;2022-12-16T00:50:10;99559.00;;;3.90;100.00
28079;BME280;15388;42.238;24.684;2022-12-16T00:52:35;99549.75;;;3.68;100.00
28079;BME280;15388;42.238;24.684;2022-12-16T00:55:01;99545.41;;;3.67;100.00
28079;BME280;15388;42.238;24.684;2022-12-16T00:57:26;99540.16;;;3.81;100.00
28079;BME280;15388;42.238;24.684;2022-12-16T00:59:52;99534.06;;;3.81;100.00
28079;BME280;15388;42.238;24.684;2022-12-16T01:02:17;99534.91;;;3.81;100.00
28079;BME280;15388;42.238;24.684;2022-12-16T01:04:42;99539.41;;;3.65;100.00
28079;BME280;15388;42.238;24.684;2022-12-16T01:07:08;99532.22;;;3.38;100.00
28079;BME280;15388;42.238;24.684;2022-12-16T01:09:33;99528.28;;;3.45;100.00
28079;BME280;15388;42.238;24.684;2022-12-16T01:11:59;99528.66;;;3.53;100.00
28079;BME280;15388;42.238;24.684;2022-12-16T01:14:24;99536.94;;;3.47;100.00
28079;BME280;15388;42.238;24.684;2022-12-16T01:16:49;99542.44;;;3.28;100.00
28079;BME280;15388;42.238;24.684;2022-12-16T01:19:14;99559.03;;;3.44;100.00
28079;BME280;15388;42.238;24.684;2022-12-16T01:21:40;99570.22;;;3.48;100.00
28079;BME280;15388;42.238;24.684;2022-12-16T01:24:05;99564.78;;;3.51;100.00
28079;BME280;15388;42.238;24.684;2022-12-16T01:26:30;99572.47;;;3.54;100.00
28079;BME280;15388;42.238;24.684;2022-12-16T01:28:56;99557.16;;;3.61;100.00
28079;BME280;15388;42.238;24.684;2022-12-16T01:31:21;99551.44;;;3.54;100.00
28079;BME280;15388;42.238;24.684;2022-12-16T01:33:47;99548.28;;;3.48;100.00
28079;BME280;15388;42.238;24.684;2022-12-16T01:36:12;99542.69;;;3.54;100.00
28079;BME280;15388;42.238;24.684;2022-12-16T01:38:40;99536.50;;;3.69;100.00
28079;BME280;15388;42.238;24.684;2022-12-16T01:41:05;99531.34;;;3.82;100.00
28079;BME280;15388;42.238;24.684;2022-12-16T01:43:33;99524.28;;;3.98;100.00
28079;BME280;15388;42.238;24.684;2022-12-16T01:48:38;99528.22;;;4.19;100.00
28079;BME280;15388;42.238;24.684;2022-12-16T01:51:16;99515.44;;;4.28;100.00
28079;BME280;15388;42.238;24.684;2022-12-16T01:53:42;99512.88;;;4.26;100.00
28079;BME280;15388;42.238;24.684;2022-12-16T01:56:09;99517.78;;;4.18;100.00
28079;BME280;15388;42.238;24.684;2022-12-16T01:58:35;99519.47;;;4.33;100.00
28079;BME280;15388;42.238;24.684;2022-12-16T02:01:03;99507.69;;;4.39;100.00
28079;BME280;15388;42.238;24.684;2022-12-16T02:03:29;99501.56;;;4.39;100.00
28079;BME280;15388;42.238;24.684;2022-12-16T02:05:56;99505.31;;;4.49;100.00
28079;BME280;15388;42.238;24.684;2022-12-16T02:08:23;99511.97;;;4.55;100.00
28079;BME280;15388;42.238;24.684;2022-12-16T02:10:55;99505.50;;;4.46;100.00
28079;BME280;15388;42.238;24.684;2022-12-16T02:13:48;99513.97;;;4.37;100.00
28079;BME280;15388;42.238;24.684;2022-12-16T02:16:19;99495.38;;;4.11;100.00
28079;BME280;15388;42.238;24.684;2022-12-16T02:18:59;99490.22;;;4.09;100.00
28079;BME280;15388;42.238;24.684;2022-12-16T02:31:40;99488.28;;;3.84;100.00
28079;BME280;15388;42.238;24.684;2022-12-16T02:47:23;99500.31;;;3.73;100.00
28079;BME280;15388;42.238;24.684;2022-12-16T02:49:50;99502.00;;;3.89;100.00
28079;BME280;15388;42.238;24.684;2022-12-16T02:52:16;99497.84;;;3.99;100.00
28079;BME280;15388;42.238;24.684;2022-12-16T02:54:43;99497.19;;;4.10;100.00
28079;BME280;15388;42.238;24.684;2022-12-16T02:59:46;99494.44;;;4.26;100.00
28079;BME280;15388;42.238;24.684;2022-12-16T03:04:51;99487.19;;;4.30;100.00
28079;BME280;15388;42.238;24.684;2022-12-16T03:07:19;99501.75;;;4.36;100.00
28079;BME280;15388;42.238;24.684;2022-12-16T03:09:46;99494.59;;;4.38;100.00
28079;BME280;15388;42.238;24.684;2022-12-16T03:12:13;99502.69;;;4.35;100.00
28079;BME280;15388;42.238;24.684;2022-12-16T03:14:41;99510.78;;;4.31;100.00
28079;BME280;15388;42.238;24.684;2022-12-16T03:17:07;99507.22;;;4.32;100.00
28079;BME280;15388;42.238;24.684;2022-12-16T03:19:33;99503.28;;;4.11;100.00
28079;BME280;15388;42.238;24.684;2022-12-16T03:22:22;99513.06;;;4.23;100.00
28079;BME280;15388;42.238;24.684;2022-12-16T03:24:45;99515.97;;;4.33;100.00
28079;BME280;15388;42.238;24.684;2022-12-16T03:27:13;99515.69;;;4.38;100.00
28079;BME280;15388;42.238;24.684;2022-12-16T03:32:47;99518.88;;;4.43;100.00
28079;BME280;15388;42.238;24.684;2022-12-16T03:38:00;99520.34;;;4.47;100.00
28079;BME280;15388;42.238;24.684;2022-12-16T03:40:27;99523.38;;;4.55;100.00
28079;BME280;15388;42.238;24.684;2022-12-16T03:42:53;99524.09;;;4.57;100.00
28079;BME280;15388;42.238;24.684;2022-12-16T03:45:21;99520.63;;;4.57;100.00
28079;BME280;15388;42.238;24.684;2022-12-16T03:47:51;99535.50;;;4.58;100.00
28079;BME280;15388;42.238;24.684;2022-12-16T03:50:20;99546.13;;;4.56;100.00
28079;BME280;15388;42.238;24.684;2022-12-16T03:52:48;99548.44;;;4.48;100.00
28079;BME280;15388;42.238;24.684;2022-12-16T03:55:13;99542.69;;;4.41;100.00
28079;BME280;15388;42.238;24.684;2022-12-16T03:57:38;99535.25;;;4.48;100.00
28079;BME280;15388;42.238;24.684;2022-12-16T04:00:04;99529.13;;;4.48;100.00
28079;BME280;15388;42.238;24.684;2022-12-16T04:02:30;99530.16;;;4.45;100.00
28079;BME280;15388;42.238;24.684;2022-12-16T04:04:55;99529.66;;;4.53;100.00
28079;BME280;15388;42.238;24.684;2022-12-16T04:07:20;99519.78;;;4.56;100.00
28079;BME280;15388;42.238;24.684;2022-12-16T04:09:46;99522.22;;;4.59;100.00
28079;BME280;15388;42.238;24.684;2022-12-16T04:12:12;99518.81;;;4.57;100.00
28079;BME280;15388;42.238;24.684;2022-12-16T04:14:56;99514.50;;;4.56;100.00
28079;BME280;15388;42.238;24.684;2022-12-16T04:17:40;99512.16;;;4.52;100.00
28079;BME280;15388;42.238;24.684;2022-12-16T04:20:25;99512.25;;;4.50;100.00
28079;BME280;15388;42.238;24.684;2022-12-16T04:23:11;99515.69;;;4.38;100.00
28079;BME280;15388;42.238;24.684;2022-12-16T04:25:55;99520.22;;;4.21;100.00
28079;BME280;15388;42.238;24.684;2022-12-16T04:28:21;99516.84;;;4.19;100.00
28079;BME280;15388;42.238;24.684;2022-12-16T04:30:46;99521.91;;;4.22;100.00
28079;BME280;15388;42.238;24.684;2022-12-16T04:33:12;99539.41;;;4.23;100.00
28079;BME280;15388;42.238;24.684;2022-12-16T04:36:16;99536.50;;;4.28;100.00
28079;BME280;15388;42.238;24.684;2022-12-16T04:39:00;99519.25;;;4.37;100.00
28079;BME280;15388;42.238;24.684;2022-12-16T04:41:44;99529.59;;;4.40;100.00
28079;BME280;15388;42.238;24.684;2022-12-16T04:44:28;99538.91;;;4.45;100.00
28079;BME280;15388;42.238;24.684;2022-12-16T04:47:11;99540.03;;;4.41;100.00
28079;BME280;15388;42.238;24.684;2022-12-16T04:49:55;99545.03;;;4.46;100.00
28079;BME280;15388;42.238;24.684;2022-12-16T04:52:39;99553.28;;;4.54;100.00
28079;BME280;15388;42.238;24.684;2022-12-16T04:55:23;99549.50;;;4.58;100.00
28079;BME280;15388;42.238;24.684;2022-12-16T04:58:07;99566.38;;;4.56;100.00
28079;BME280;15388;42.238;24.684;2022-12-16T05:00:51;99544.69;;;4.65;100.00
28079;BME280;15388;42.238;24.684;2022-12-16T05:03:35;99534.78;;;4.69;100.00
28079;BME280;15388;42.238;24.684;2022-12-16T05:06:19;99528.88;;;4.65;100.00
28079;BME280;15388;42.238;24.684;2022-12-16T05:09:03;99518.38;;;4.78;100.00
28079;BME280;15388;42.238;24.684;2022-12-16T05:11:47;99516.28;;;4.83;100.00
28079;BME280;15388;42.238;24.684;2022-12-16T05:14:31;99515.00;;;4.76;100.00
28079;BME280;15388;42.238;24.684;2022-12-16T05:17:15;99516.09;;;4.87;100.00
28079;BME280;15388;42.238;24.684;2022-12-16T05:19:59;99514.41;;;4.86;100.00
28079;BME280;15388;42.238;24.684;2022-12-16T05:22:43;99529.47;;;4.83;100.00
28079;BME280;15388;42.238;24.684;2022-12-16T05:25:26;99546.50;;;4.92;100.00
28079;BME280;15388;42.238;24.684;2022-12-16T05:28:10;99547.16;;;4.96;100.00
28079;BME280;15388;42.238;24.684;2022-12-16T05:30:54;99558.59;;;5.09;100.00
28079;BME280;15388;42.238;24.684;2022-12-16T05:33:38;99562.63;;;5.15;100.00
28079;BME280;15388;42.238;24.684;2022-12-16T05:36:22;99567.03;;;5.15;100.00
28079;BME280;15388;42.238;24.684;2022-12-16T05:39:06;99553.97;;;4.86;100.00
28079;BME280;15388;42.238;24.684;2022-12-16T05:41:50;99550.59;;;4.96;100.00
28079;BME280;15388;42.238;24.684;2022-12-16T05:44:34;99547.56;;;5.03;100.00
28079;BME280;15388;42.238;24.684;2022-12-16T05:47:18;99536.88;;;5.19;100.00
28079;BME280;15388;42.238;24.684;2022-12-16T05:50:02;99530.13;;;5.28;100.00
28079;BME280;15388;42.238;24.684;2022-12-16T05:52:50;99529.06;;;5.30;100.00
28079;BME280;15388;42.238;24.684;2022-12-16T05:55:34;99539.88;;;5.40;100.00
28079;BME280;15388;42.238;24.684;2022-12-16T05:58:18;99551.06;;;5.44;100.00
28079;BME280;15388;42.238;24.684;2022-12-16T06:01:02;99548.72;;;5.52;100.00
28079;BME280;15388;42.238;24.684;2022-12-16T06:03:45;99542.19;;;5.58;100.00
28079;BME280;15388;42.238;24.684;2022-12-16T06:06:29;99557.94;;;5.59;100.00
28079;BME280;15388;42.238;24.684;2022-12-16T06:09:13;99572.84;;;5.60;100.00
28079;BME280;15388;42.238;24.684;2022-12-16T06:11:57;99582.25;;;5.65;100.00
28079;BME280;15388;42.238;24.684;2022-12-16T06:14:58;99590.38;;;5.61;100.00
28079;BME280;15388;42.238;24.684;2022-12-16T06:17:48;99603.88;;;5.57;100.00
28079;BME280;15388;42.238;24.684;2022-12-16T06:20:32;99603.28;;;5.66;100.00
28079;BME280;15388;42.238;24.684;2022-12-16T06:23:16;99596.06;;;5.55;100.00
28079;BME280;15388;42.238;24.684;2022-12-16T06:26:00;99586.97;;;5.59;100.00
28079;BME280;15388;42.238;24.684;2022-12-16T06:28:44;99597.13;;;5.66;100.00
28079;BME280;15388;42.238;24.684;2022-12-16T06:31:28;99604.75;;;5.70;100.00
28079;BME280;15388;42.238;24.684;2022-12-16T06:34:12;99607.09;;;5.75;100.00
28079;BME280;15388;42.238;24.684;2022-12-16T06:36:55;99607.72;;;5.79;100.00
28079;BME280;15388;42.238;24.684;2022-12-16T06:39:39;99614.06;;;5.76;100.00
28079;BME280;15388;42.238;24.684;2022-12-16T06:42:23;99621.41;;;5.71;100.00
28079;BME280;15388;42.238;24.684;2022-12-16T06:45:07;99612.97;;;5.66;100.00
28079;BME280;15388;42.238;24.684;2022-12-16T06:47:51;99614.78;;;5.78;100.00
28079;BME280;15388;42.238;24.684;2022-12-16T06:50:35;99610.66;;;5.87;100.00
28079;BME280;15388;42.238;24.684;2022-12-16T06:53:19;99611.63;;;5.86;100.00
28079;BME280;15388;42.238;24.684;2022-12-16T06:56:02;99613.75;;;5.94;100.00
28079;BME280;15388;42.238;24.684;2022-12-16T06:58:46;99627.78;;;5.94;100.00
28079;BME280;15388;42.238;24.684;2022-12-16T07:01:30;99647.69;;;6.00;100.00
28079;BME280;15388;42.238;24.684;2022-12-16T07:04:14;99663.31;;;6.03;100.00
28079;BME280;15388;42.238;24.684;2022-12-16T07:06:58;99669.66;;;6.01;100.00
28079;BME280;15388;42.238;24.684;2022-12-16T07:09:42;99661.63;;;6.02;100.00
28079;BME280;15388;42.238;24.684;2022-12-16T07:12:26;99674.16;;;5.85;100.00
28079;BME280;15388;42.238;24.684;2022-12-16T07:15:10;99661.59;;;5.76;100.00
28079;BME280;15388;42.238;24.684;2022-12-16T07:17:54;99637.41;;;5.82;100.00
28079;BME280;15388;42.238;24.684;2022-12-16T07:20:38;99646.06;;;5.84;100.00
28079;BME280;15388;42.238;24.684;2022-12-16T07:23:22;99653.38;;;5.94;100.00
28079;BME280;15388;42.238;24.684;2022-12-16T07:26:06;99670.78;;;5.83;100.00
28079;BME280;15388;42.238;24.684;2022-12-16T07:28:50;99676.81;;;5.85;100.00
28079;BME280;15388;42.238;24.684;2022-12-16T07:31:34;99681.88;;;5.89;100.00
28079;BME280;15388;42.238;24.684;2022-12-16T07:34:18;99682.97;;;5.99;100.00
28079;BME280;15388;42.238;24.684;2022-12-16T07:37:02;99673.03;;;6.03;100.00
28079;BME280;15388;42.238;24.684;2022-12-16T07:39:46;99674.97;;;6.14;100.00
28079;BME280;15388;42.238;24.684;2022-12-16T07:42:29;99679.63;;;6.23;100.00
28079;BME280;15388;42.238;24.684;2022-12-16T07:45:13;99677.97;;;6.22;100.00
28079;BME280;15388;42.238;24.684;2022-12-16T07:47:57;99674.88;;;6.28;100.00
28079;BME280;15388;42.238;24.684;2022-12-16T07:50:41;99679.44;;;6.26;100.00
28079;BME280;15388;42.238;24.684;2022-12-16T07:53:25;99668.00;;;6.39;100.00
28079;BME280;15388;42.238;24.684;2022-12-16T07:56:10;99659.66;;;6.45;100.00
28079;BME280;15388;42.238;24.684;2022-12-16T07:58:53;99650.84;;;6.57;100.00
28079;BME280;15388;42.238;24.684;2022-12-16T08:01:37;99670.00;;;6.61;100.00
28079;BME280;15388;42.238;24.684;2022-12-16T08:04:22;99658.22;;;6.78;100.00
28079;BME280;15388;42.238;24.684;2022-12-16T08:07:05;99646.47;;;6.82;100.00
28079;BME280;15388;42.238;24.684;2022-12-16T08:09:49;99641.59;;;6.89;100.00
28079;BME280;15388;42.238;24.684;2022-12-16T08:12:33;99653.53;;;6.95;100.00
28079;BME280;15388;42.238;24.684;2022-12-16T08:15:17;99648.63;;;7.01;100.00
28079;BME280;15388;42.238;24.684;2022-12-16T08:18:01;99649.50;;;7.02;100.00
28079;BME280;15388;42.238;24.684;2022-12-16T08:20:45;99654.56;;;7.05;100.00
28079;BME280;15388;42.238;24.684;2022-12-16T08:23:29;99652.38;;;7.23;100.00
28079;BME280;15388;42.238;24.684;2022-12-16T08:26:13;99630.53;;;7.33;100.00
28079;BME280;15388;42.238;24.684;2022-12-16T08:28:57;99637.88;;;7.41;100.00
28079;BME280;15388;42.238;24.684;2022-12-16T08:31:41;99628.06;;;7.54;100.00
28079;BME280;15388;42.238;24.684;2022-12-16T08:34:25;99630.03;;;7.63;100.00
28079;BME280;15388;42.238;24.684;2022-12-16T08:37:09;99644.78;;;7.79;100.00
28079;BME280;15388;42.238;24.684;2022-12-16T08:39:52;99655.34;;;7.68;100.00
28079;BME280;15388;42.238;24.684;2022-12-16T08:42:36;99652.72;;;7.79;100.00
28079;BME280;15388;42.238;24.684;2022-12-16T08:45:20;99649.13;;;7.92;100.00
28079;BME280;15388;42.238;24.684;2022-12-16T08:48:04;99640.25;;;8.04;100.00
28079;BME280;15388;42.238;24.684;2022-12-16T08:50:48;99638.06;;;8.09;100.00
28079;BME280;15388;42.238;24.684;2022-12-16T08:53:34;99634.00;;;8.16;100.00
28079;BME280;15388;42.238;24.684;2022-12-16T08:56:18;99620.75;;;8.28;100.00
28079;BME280;15388;42.238;24.684;2022-12-16T08:59:02;99610.88;;;8.41;100.00
28079;BME280;15388;42.238;24.684;2022-12-16T09:02:03;99616.94;;;8.55;100.00
28079;BME280;15388;42.238;24.684;2022-12-16T09:04:46;99615.69;;;8.71;100.00
28079;BME280;15388;42.238;24.684;2022-12-16T09:07:30;99614.84;;;8.82;100.00
28079;BME280;15388;42.238;24.684;2022-12-16T09:10:14;99607.84;;;8.92;100.00
28079;BME280;15388;42.238;24.684;2022-12-16T09:13:08;99608.63;;;9.04;100.00
28079;BME280;15388;42.238;24.684;2022-12-16T09:15:52;99604.28;;;9.03;100.00
28079;BME280;15388;42.238;24.684;2022-12-16T09:18:36;99598.25;;;9.12;100.00
28079;BME280;15388;42.238;24.684;2022-12-16T09:21:20;99602.88;;;8.99;100.00
28079;BME280;15388;42.238;24.684;2022-12-16T09:24:04;99588.38;;;9.03;100.00
28079;BME280;15388;42.238;24.684;2022-12-16T09:26:48;99578.94;;;9.10;100.00
28079;BME280;15388;42.238;24.684;2022-12-16T09:29:32;99580.34;;;9.14;100.00
28079;BME280;15388;42.238;24.684;2022-12-16T09:32:19;99583.75;;;9.16;100.00
28079;BME280;15388;42.238;24.684;2022-12-16T09:35:03;99596.38;;;9.24;100.00
28079;BME280;15388;42.238;24.684;2022-12-16T09:37:47;99584.72;;;9.15;100.00
28079;BME280;15388;42.238;24.684;2022-12-16T09:40:31;99580.88;;;9.08;100.00
28079;BME280;15388;42.238;24.684;2022-12-16T09:43:28;99571.44;;;9.15;100.00
28079;BME280;15388;42.238;24.684;2022-12-16T09:46:16;99565.28;;;9.15;100.00
28079;BME280;15388;42.238;24.684;2022-12-16T09:52:11;99570.28;;;9.08;100.00
28079;BME280;15388;42.238;24.684;2022-12-16T09:54:57;99576.13;;;8.79;100.00
28079;BME280;15388;42.238;24.684;2022-12-16T09:57:41;99573.16;;;8.61;100.00
28079;BME280;15388;42.238;24.684;2022-12-16T10:00:26;99561.34;;;8.53;100.00
28079;BME280;15388;42.238;24.684;2022-12-16T10:03:28;99554.47;;;8.62;100.00
28079;BME280;15388;42.238;24.684;2022-12-16T10:11:57;99549.63;;;8.56;100.00
28079;BME280;15388;42.238;24.684;2022-12-16T10:15:09;99540.47;;;8.49;100.00
28079;BME280;15388;42.238;24.684;2022-12-16T10:17:50;99540.66;;;8.80;100.00
28079;BME280;15388;42.238;24.684;2022-12-16T10:20:42;99535.13;;;8.83;100.00
28079;BME280;15388;42.238;24.684;2022-12-16T10:29:19;99528.53;;;8.99;100.00
28079;BME280;15388;42.238;24.684;2022-12-16T10:34:56;99528.03;;;9.05;100.00
28079;BME280;15388;42.238;24.684;2022-12-16T10:37:40;99525.16;;;8.97;100.00
28079;BME280;15388;42.238;24.684;2022-12-16T10:40:27;99536.25;;;9.02;100.00
28079;BME280;15388;42.238;24.684;2022-12-16T10:43:28;99529.72;;;9.06;100.00
28079;BME280;15388;42.238;24.684;2022-12-16T10:46:17;99527.00;;;9.17;100.00
28079;BME280;15388;42.238;24.684;2022-12-16T10:49:03;99521.13;;;9.14;100.00
28079;BME280;15388;42.238;24.684;2022-12-16T10:51:47;99525.38;;;9.05;100.00
28079;BME280;15388;42.238;24.684;2022-12-16T10:54:37;99522.84;;;9.03;100.00
28079;BME280;15388;42.238;24.684;2022-12-16T11:03:29;99518.47;;;9.35;100.00
28079;BME280;15388;42.238;24.684;2022-12-16T11:06:18;99533.34;;;9.48;100.00
28079;BME280;15388;42.238;24.684;2022-12-16T11:09:19;99526.16;;;9.60;100.00
28079;BME280;15388;42.238;24.684;2022-12-16T11:18:18;99524.91;;;9.85;100.00
28079;BME280;15388;42.238;24.684;2022-12-16T11:24:06;99525.25;;;10.02;100.00
28079;BME280;15388;42.238;24.684;2022-12-16T11:26:51;99536.31;;;9.97;100.00
28079;BME280;15388;42.238;24.684;2022-12-16T11:29:45;99533.66;;;9.97;100.00
28079;BME280;15388;42.238;24.684;2022-12-16T11:32:31;99525.25;;;10.02;100.00
28079;BME280;15388;42.238;24.684;2022-12-16T11:35:16;99524.44;;;10.01;100.00
28079;BME280;15388;42.238;24.684;2022-12-16T11:38:01;99507.38;;;10.04;100.00
28079;BME280;15388;42.238;24.684;2022-12-16T11:40:46;99508.66;;;10.10;100.00
28079;BME280;15388;42.238;24.684;2022-12-16T11:43:30;99513.72;;;10.23;100.00
28079;BME280;15388;42.238;24.684;2022-12-16T11:46:20;99500.59;;;10.31;100.00
28079;BME280;15388;42.238;24.684;2022-12-16T11:49:08;99508.56;;;10.31;100.00
28079;BME280;15388;42.238;24.684;2022-12-16T11:51:59;99504.13;;;10.41;100.00
28079;BME280;15388;42.238;24.684;2022-12-16T11:54:56;99508.28;;;10.34;100.00
28079;BME280;15388;42.238;24.684;2022-12-16T11:57:49;99499.38;;;10.35;100.00
28079;BME280;15388;42.238;24.684;2022-12-16T12:00:35;99497.38;;;10.37;100.00
28079;BME280;15388;42.238;24.684;2022-12-16T12:03:24;99496.84;;;10.43;100.00
28079;BME280;15388;42.238;24.684;2022-12-16T12:06:22;99490.41;;;10.36;100.00
28079;BME280;15388;42.238;24.684;2022-12-16T12:11:59;99514.25;;;10.48;100.00
28079;BME280;15388;42.238;24.684;2022-12-16T12:20:41;99508.22;;;10.45;100.00
28079;BME280;15388;42.238;24.684;2022-12-16T12:23:41;99514.75;;;10.41;100.00
28079;BME280;15388;42.238;24.684;2022-12-16T12:26:30;99519.91;;;10.33;100.00
28079;BME280;15388;42.238;24.684;2022-12-16T12:37:45;99512.75;;;10.24;100.00
28079;BME280;15388;42.238;24.684;2022-12-16T12:46:32;99509.56;;;10.30;100.00
28079;BME280;15388;42.238;24.684;2022-12-16T12:58:03;99493.19;;;10.44;100.00
28079;BME280;15388;42.238;24.684;2022-12-16T13:00:49;99508.75;;;10.39;100.00
28079;BME280;15388;42.238;24.684;2022-12-16T13:03:57;99505.56;;;10.45;100.00
28079;BME280;15388;42.238;24.684;2022-12-16T13:06:38;99510.88;;;10.45;100.00
28079;BME280;15388;42.238;24.684;2022-12-16T13:14:55;99513.56;;;10.14;100.00
28079;BME280;15388;42.238;24.684;2022-12-16T13:20:44;99499.81;;;10.09;100.00
28079;BME280;15388;42.238;24.684;2022-12-16T13:23:35;99505.69;;;10.03;100.00
28079;BME280;15388;42.238;24.684;2022-12-16T13:26:29;99503.31;;;10.10;100.00
28079;BME280;15388;42.238;24.684;2022-12-16T13:29:17;99513.84;;;10.11;100.00
28079;BME280;15388;42.238;24.684;2022-12-16T13:32:23;99525.34;;;9.90;100.00
28079;BME280;15388;42.238;24.684;2022-12-16T13:37:56;99519.81;;;10.03;100.00
28079;BME280;15388;42.238;24.684;2022-12-16T13:40:57;99521.59;;;9.93;100.00
28079;BME280;15388;42.238;24.684;2022-12-16T13:43:48;99515.44;;;9.92;100.00
28079;BME280;15388;42.238;24.684;2022-12-16T13:46:43;99514.72;;;9.90;100.00
28079;BME280;15388;42.238;24.684;2022-12-16T13:52:18;99526.06;;;9.92;100.00
28079;BME280;15388;42.238;24.684;2022-12-16T13:55:09;99528.81;;;9.81;100.00
28079;BME280;15388;42.238;24.684;2022-12-16T13:57:54;99524.88;;;9.75;100.00
28079;BME280;15388;42.238;24.684;2022-12-16T14:00:40;99518.13;;;9.71;100.00
28079;BME280;15388;42.238;24.684;2022-12-16T14:03:37;99522.66;;;9.80;100.00
28079;BME280;15388;42.238;24.684;2022-12-16T14:06:22;99534.97;;;9.81;100.00
28079;BME280;15388;42.238;24.684;2022-12-16T14:09:14;99526.56;;;9.76;100.00
28079;BME280;15388;42.238;24.684;2022-12-16T14:12:04;99530.75;;;9.79;100.00
28079;BME280;15388;42.238;24.684;2022-12-16T14:15:00;99537.50;;;9.83;100.00
28079;BME280;15388;42.238;24.684;2022-12-16T14:17:52;99539.16;;;9.84;100.00
28079;BME280;15388;42.238;24.684;2022-12-16T14:20:49;99541.97;;;9.83;100.00
28079;BME280;15388;42.238;24.684;2022-12-16T14:23:37;99546.63;;;9.90;100.00
28079;BME280;15388;42.238;24.684;2022-12-16T14:26:24;99546.63;;;9.90;100.00
28079;BME280;15388;42.238;24.684;2022-12-16T14:29:14;99547.09;;;9.96;100.00
28079;BME280;15388;42.238;24.684;2022-12-16T14:32:01;99546.63;;;9.90;100.00
28079;BME280;15388;42.238;24.684;2022-12-16T14:35:00;99540.88;;;9.85;100.00
28079;BME280;15388;42.238;24.684;2022-12-16T14:37:44;99555.84;;;9.86;100.00
28079;BME280;15388;42.238;24.684;2022-12-16T14:40:29;99550.09;;;9.81;100.00
28079;BME280;15388;42.238;24.684;2022-12-16T14:43:14;99556.00;;;9.94;100.00
28079;BME280;15388;42.238;24.684;2022-12-16T14:45:58;99555.06;;;9.96;100.00
28079;BME280;15388;42.238;24.684;2022-12-16T14:48:44;99556.09;;;10.04;100.00
28079;BME280;15388;42.238;24.684;2022-12-16T14:54:25;99554.50;;;10.02;100.00
28079;BME280;15388;42.238;24.684;2022-12-16T14:57:19;99560.97;;;10.09;100.00
28079;BME280;15388;42.238;24.684;2022-12-16T15:02:47;99568.44;;;10.15;100.00
28079;BME280;15388;42.238;24.684;2022-12-16T15:05:34;99569.28;;;10.16;100.00
28079;BME280;15388;42.238;24.684;2022-12-16T15:08:19;99565.94;;;10.24;100.00
28079;BME280;15388;42.238;24.684;2022-12-16T15:11:03;99566.50;;;10.17;100.00
28079;BME280;15388;42.238;24.684;2022-12-16T15:13:48;99573.75;;;10.15;100.00
28079;BME280;15388;42.238;24.684;2022-12-16T15:16:35;99561.44;;;10.14;100.00
28079;BME280;15388;42.238;24.684;2022-12-16T15:19:20;99566.00;;;10.02;100.00
28079;BME280;15388;42.238;24.684;2022-12-16T15:22:05;99562.47;;;10.02;100.00
28079;BME280;15388;42.238;24.684;2022-12-16T15:24:49;99565.28;;;10.00;100.00
28079;BME280;15388;42.238;24.684;2022-12-16T15:27:33;99566.38;;;9.98;100.00
28079;BME280;15388;42.238;24.684;2022-12-16T15:33:32;99596.00;;;9.93;100.00
28079;BME280;15388;42.238;24.684;2022-12-16T15:36:23;99595.97;;;9.83;100.00
28079;BME280;15388;42.238;24.684;2022-12-16T15:42:04;99585.22;;;9.63;100.00
28079;BME280;15388;42.238;24.684;2022-12-16T15:44:49;99602.28;;;9.61;100.00
28079;BME280;15388;42.238;24.684;2022-12-16T15:47:36;99601.06;;;9.53;100.00
28079;BME280;15388;42.238;24.684;2022-12-16T15:50:21;99600.63;;;9.48;100.00
28079;BME280;15388;42.238;24.684;2022-12-16T15:53:24;99593.50;;;9.49;100.00
28079;BME280;15388;42.238;24.684;2022-12-16T16:02:20;99599.31;;;9.42;100.00
28079;BME280;15388;42.238;24.684;2022-12-16T16:05:13;99605.66;;;9.30;100.00
28079;BME280;15388;42.238;24.684;2022-12-16T16:07:57;99594.69;;;9.23;100.00
28079;BME280;15388;42.238;24.684;2022-12-16T16:10:42;99599.63;;;9.28;100.00
28079;BME280;15388;42.238;24.684;2022-12-16T16:13:26;99602.53;;;9.25;100.00